Time;durP1;ratioP1;P1;durP2;ratioP2;P2;SDS_P1;SDS_P2;PMS_P1;PMS_P2;Temp;Humidity;BMP_temperature;BMP_pressure;BME280_temperature;BME280_humidity;BME280_pressure;Samples;Min_cycle;Max_cycle;Signal;HPM_P1;HPM_P2
2021/01/21 00:01:39;;;;;;;3.80;2.25;;;;;;;;;;5093703;28;20196;-62
2021/01/21 00:04:06;;;;;;;3.03;2.30;;;;;;;;;;5093876;28;20640;-62
2021/01/21 00:06:33;;;;;;;3.10;2.08;;;;;;;;;;5093512;28;20246;-63
2021/01/21 00:09:00;;;;;;;4.25;2.22;;;;;;;;;;5093415;28;20223;-62
2021/01/21 00:11:27;;;;;;;6.60;2.50;;;;;;;;;;5093489;28;20249;-63
2021/01/21 00:13:54;;;;;;;2.90;2.00;;;;;;;;;;5093324;28;20208;-63
2021/01/21 00:16:20;;;;;;;3.33;2.22;;;;;;;;;;5093570;28;20200;-63
2021/01/21 00:18:48;;;;;;;2.63;2.10;;;;;;;;;;5093207;28;20213;-63
2021/01/21 00:21:15;;;;;;;2.90;2.17;;;;;;;;;;5093593;28;20200;-63
2021/01/21 00:23:41;;;;;;;2.97;1.95;;;;;;;;;;5096822;28;20548;-63
2021/01/21 00:26:08;;;;;;;3.85;2.10;;;;;;;;;;5097400;28;20204;-63
2021/01/21 00:28:35;;;;;;;6.03;2.00;;;;;;;;;;5097695;28;20227;-63
2021/01/21 00:31:02;;;;;;;3.35;2.17;;;;;;;;;;5097664;28;20227;-63
2021/01/21 00:33:28;;;;;;;3.15;1.98;;;;;;;;;;5098039;28;20208;-63
2021/01/21 00:35:56;;;;;;;3.20;1.80;;;;;;;;;;5097641;28;20609;-64
2021/01/21 00:38:23;;;;;;;2.30;1.70;;;;;;;;;;5097294;28;20280;-62
2021/01/21 00:40:50;;;;;;;4.43;2.25;;;;;;;;;;5097242;28;20207;-63
2021/01/21 00:43:16;;;;;;;2.20;2.00;;;;;;;;;;5097097;28;20608;-64
2021/01/21 00:45:43;;;;;;;5.20;2.00;;;;;;;;;;5097798;28;20212;-62
2021/01/21 00:48:10;;;;;;;4.30;2.38;;;;;;;;;;5096860;28;20220;-63
2021/01/21 00:50:37;;;;;;;1.98;1.70;;;;;;;;;;5097271;28;20563;-63
2021/01/21 00:53:04;;;;;;;4.00;2.10;;;;;;;;;;5097712;28;20216;-62
2021/01/21 00:55:31;;;;;;;3.40;1.95;;;;;;;;;;5097198;28;20200;-62
2021/01/21 00:57:58;;;;;;;3.85;2.28;;;;;;;;;;5097148;28;20246;-62
2021/01/21 01:00:24;;;;;;;7.60;2.50;;;;;;;;;;5096997;28;20200;-63
2021/01/21 01:02:51;;;;;;;3.40;2.58;;;;;;;;;;5096842;28;20211;-63
2021/01/21 01:05:18;;;;;;;3.58;2.40;;;;;;;;;;5096954;28;20208;-63
2021/01/21 01:07:45;;;;;;;3.22;1.90;;;;;;;;;;5096891;28;20220;-63
2021/01/21 01:10:13;;;;;;;3.55;2.20;;;;;;;;;;5096963;28;20200;-63
2021/01/21 01:12:39;;;;;;;2.75;2.13;;;;;;;;;;5097045;28;20211;-62
2021/01/21 01:15:07;;;;;;;4.55;1.90;;;;;;;;;;5096920;28;20200;-64
2021/01/21 01:17:34;;;;;;;3.05;2.15;;;;;;;;;;5096436;28;20225;-63
2021/01/21 01:20:01;;;;;;;2.75;1.98;;;;;;;;;;5096741;28;20204;-61
2021/01/21 01:22:28;;;;;;;3.85;1.67;;;;;;;;;;5096362;28;20618;-62
2021/01/21 01:24:54;;;;;;;3.55;2.00;;;;;;;;;;5097163;28;20204;-61
2021/01/21 01:27:22;;;;;;;5.32;1.98;;;;;;;;;;5096702;28;20231;-62
2021/01/21 01:29:49;;;;;;;2.90;2.58;;;;;;;;;;5096798;28;20204;-63
2021/01/21 01:32:15;;;;;;;4.45;2.30;;;;;;;;;;5096943;28;20200;-63
2021/01/21 01:34:42;;;;;;;3.15;2.35;;;;;;;;;;5095950;28;20223;-63
2021/01/21 01:37:09;;;;;;;2.35;2.13;;;;;;;;;;5096486;28;20640;-63
2021/01/21 01:39:36;;;;;;;3.30;1.95;;;;;;;;;;5096587;28;20193;-64
2021/01/21 01:42:08;;;;;;;2.85;1.52;;;;;;;;;;5096424;28;20576;-63
2021/01/21 01:44:35;;;;;;;3.40;1.75;;;;;;;;;;5096460;28;20191;-62
2021/01/21 01:47:02;;;;;;;6.88;1.83;;;;;;;;;;5097801;28;20242;-61
2021/01/21 01:49:29;;;;;;;4.70;1.85;;;;;;;;;;5101698;28;20223;-62
2021/01/21 01:51:56;;;;;;;5.30;1.80;;;;;;;;;;5097830;28;20211;-63
2021/01/21 01:54:23;;;;;;;2.55;2.35;;;;;;;;;;5096166;28;20325;-62
2021/01/21 01:56:49;;;;;;;3.95;2.20;;;;;;;;;;5096275;28;20204;-62
2021/01/21 01:59:17;;;;;;;3.85;1.85;;;;;;;;;;5096716;28;20203;-62
2021/01/21 02:01:44;;;;;;;3.80;1.88;;;;;;;;;;5096691;28;20207;-63
2021/01/21 02:04:11;;;;;;;3.42;2.00;;;;;;;;;;5096722;28;20616;-62
2021/01/21 02:06:38;;;;;;;2.05;1.73;;;;;;;;;;5096066;28;20203;-63
2021/01/21 02:09:05;;;;;;;1.95;1.75;;;;;;;;;;5099432;28;20220;-63
2021/01/21 02:11:42;;;;;;;4.07;1.83;;;;;;;;;;5105446;28;20734;-62
2021/01/21 02:14:14;;;;;;;2.97;1.80;;;;;;;;;;5099334;28;20195;-63
2021/01/21 02:16:48;;;;;;;2.20;1.60;;;;;;;;;;5097357;28;20193;-63
2021/01/21 02:19:33;;;;;;;2.75;1.75;;;;;;;;;;5096985;28;20599;-63
2021/01/21 02:22:22;;;;;;;4.15;1.58;;;;;;;;;;5075119;28;20254;-63
2021/01/21 02:25:03;;;;;;;3.80;2.17;;;;;;;;;;5095621;28;20207;-63
2021/01/21 02:27:35;;;;;;;4.63;1.90;;;;;;;;;;5095837;28;20220;-63
2021/01/21 02:30:05;;;;;;;3.97;2.05;;;;;;;;;;5096562;28;20561;-63
2021/01/21 02:32:42;;;;;;;3.13;1.75;;;;;;;;;;5096684;28;20204;-62
2021/01/21 02:35:13;;;;;;;2.83;1.80;;;;;;;;;;5095377;28;20180;-63
2021/01/21 02:37:45;;;;;;;2.30;1.77;;;;;;;;;;5094909;28;20228;-63
2021/01/21 02:40:15;;;;;;;2.42;1.50;;;;;;;;;;5094789;28;20594;-63
2021/01/21 02:42:46;;;;;;;3.05;1.90;;;;;;;;;;5095103;28;20200;-63
2021/01/21 02:45:13;;;;;;;2.25;1.60;;;;;;;;;;5094591;28;20679;-64
2021/01/21 02:47:40;;;;;;;3.97;1.75;;;;;;;;;;5093835;28;20271;-63
2021/01/21 02:50:07;;;;;;;4.85;1.80;;;;;;;;;;5094517;28;20616;-62
2021/01/21 02:52:38;;;;;;;1.52;1.42;;;;;;;;;;5094536;28;20672;-63
2021/01/21 02:55:10;;;;;;;2.40;1.73;;;;;;;;;;5094837;28;20189;-63
2021/01/21 02:57:39;;;;;;;4.35;2.20;;;;;;;;;;5094721;28;20216;-64
2021/01/21 03:00:07;;;;;;;2.05;1.80;;;;;;;;;;5094654;28;20207;-63
2021/01/21 03:02:36;;;;;;;2.10;1.40;;;;;;;;;;5095006;28;20200;-64
2021/01/21 03:05:04;;;;;;;3.53;2.13;;;;;;;;;;5094477;28;20204;-63
2021/01/21 03:07:31;;;;;;;6.18;2.75;;;;;;;;;;5094223;28;20658;-64
2021/01/21 03:09:59;;;;;;;2.78;1.40;;;;;;;;;;5094318;28;20690;-63
2021/01/21 03:12:26;;;;;;;3.72;2.08;;;;;;;;;;5094584;28;20212;-63
2021/01/21 03:14:54;;;;;;;2.10;1.50;;;;;;;;;;5094243;28;20261;-64
2021/01/21 03:17:21;;;;;;;3.00;1.95;;;;;;;;;;5094026;28;20716;-62
2021/01/21 03:19:48;;;;;;;3.53;1.77;;;;;;;;;;5094380;28;20199;-62
2021/01/21 03:22:15;;;;;;;2.88;1.50;;;;;;;;;;5094307;28;20200;-63
2021/01/21 03:24:42;;;;;;;2.80;1.70;;;;;;;;;;5093990;28;20204;-63
2021/01/21 03:27:09;;;;;;;3.75;1.70;;;;;;;;;;5094177;28;20772;-64
2021/01/21 03:29:36;;;;;;;2.88;1.40;;;;;;;;;;5094522;28;20271;-63
2021/01/21 03:32:03;;;;;;;3.75;1.80;;;;;;;;;;5094141;28;20859;-63
2021/01/21 03:34:30;;;;;;;2.40;2.00;;;;;;;;;;5094757;28;20249;-62
2021/01/21 03:36:57;;;;;;;7.70;1.73;;;;;;;;;;5094967;28;20228;-63
2021/01/21 03:39:24;;;;;;;1.85;1.40;;;;;;;;;;5094791;28;20207;-62
2021/01/21 03:41:51;;;;;;;3.97;1.70;;;;;;;;;;5094345;28;20196;-63
2021/01/21 03:44:19;;;;;;;3.90;1.77;;;;;;;;;;5094416;28;20207;-62
2021/01/21 03:46:46;;;;;;;3.90;1.35;;;;;;;;;;5093855;28;20668;-63
2021/01/21 03:49:12;;;;;;;2.08;1.67;;;;;;;;;;5094661;28;20216;-63
2021/01/21 03:51:39;;;;;;;2.45;1.92;;;;;;;;;;5094669;28;20203;-62
2021/01/21 03:54:06;;;;;;;4.45;1.83;;;;;;;;;;5094641;28;20207;-63
2021/01/21 03:56:33;;;;;;;2.25;1.40;;;;;;;;;;5093873;28;20569;-63
2021/01/21 03:58:59;;;;;;;2.53;1.70;;;;;;;;;;5093354;28;20196;-63
2021/01/21 04:01:27;;;;;;;2.78;1.70;;;;;;;;;;5093751;28;20672;-63
2021/01/21 04:03:54;;;;;;;3.03;1.65;;;;;;;;;;5093722;28;20261;-63
2021/01/21 04:07:39;;;;;;;2.40;1.60;;;;;;;;;;5112484;27;20605;-63
2021/01/21 04:10:06;;;;;;;3.85;1.73;;;;;;;;;;5111669;28;20225;-64
2021/01/21 04:12:33;;;;;;;3.45;1.40;;;;;;;;;;5111446;28;20238;-63
2021/01/21 04:15:00;;;;;;;3.15;1.77;;;;;;;;;;5111428;28;20199;-62
2021/01/21 04:17:27;;;;;;;2.47;1.50;;;;;;;;;;5111568;28;20219;-63
2021/01/21 04:19:53;;;;;;;1.63;1.40;;;;;;;;;;5112270;28;20249;-63
2021/01/21 04:22:20;;;;;;;2.20;1.70;;;;;;;;;;5112848;28;20253;-63
2021/01/21 04:24:48;;;;;;;1.98;1.33;;;;;;;;;;5113398;28;20264;-63
2021/01/21 04:27:14;;;;;;;1.65;1.20;;;;;;;;;;5112589;28;20230;-63
2021/01/21 04:29:41;;;;;;;2.13;1.60;;;;;;;;;;5113890;28;20199;-63
2021/01/21 04:32:08;;;;;;;3.42;1.40;;;;;;;;;;5113179;28;20204;-62
2021/01/21 04:34:34;;;;;;;2.58;1.45;;;;;;;;;;5112390;28;20208;-63
2021/01/21 04:37:01;;;;;;;2.80;1.77;;;;;;;;;;5112523;28;20216;-63
2021/01/21 04:39:28;;;;;;;3.25;1.70;;;;;;;;;;5111523;28;20207;-63
2021/01/21 04:41:55;;;;;;;3.53;1.63;;;;;;;;;;5111663;28;20249;-63
2021/01/21 04:44:22;;;;;;;1.70;1.42;;;;;;;;;;5112027;28;20204;-62
2021/01/21 04:46:49;;;;;;;3.40;1.65;;;;;;;;;;5112536;28;20215;-63
2021/01/21 04:49:16;;;;;;;4.45;1.58;;;;;;;;;;5113117;28;20204;-62
2021/01/21 04:51:44;;;;;;;4.70;2.00;;;;;;;;;;5111357;28;20252;-63
2021/01/21 04:54:12;;;;;;;2.83;2.00;;;;;;;;;;5113277;28;20224;-64
2021/01/21 04:56:40;;;;;;;2.90;1.50;;;;;;;;;;5114998;28;20682;-62
2021/01/21 04:59:10;;;;;;;4.70;1.95;;;;;;;;;;5112698;28;20277;-62
2021/01/21 05:01:37;;;;;;;1.77;1.40;;;;;;;;;;5112273;28;20271;-63
2021/01/21 05:04:04;;;;;;;1.92;1.45;;;;;;;;;;5111242;28;20199;-63
2021/01/21 05:06:32;;;;;;;2.47;1.58;;;;;;;;;;5114363;28;20271;-63
2021/01/21 05:08:59;;;;;;;1.80;1.45;;;;;;;;;;5110958;28;20582;-63
2021/01/21 05:11:26;;;;;;;2.90;1.48;;;;;;;;;;5114160;28;20208;-62
2021/01/21 05:13:55;;;;;;;1.63;1.30;;;;;;;;;;5111182;28;20687;-64
2021/01/21 05:16:22;;;;;;;5.18;1.60;;;;;;;;;;5112814;28;20192;-63
2021/01/21 05:18:50;;;;;;;2.60;1.65;;;;;;;;;;5097675;28;20220;-63
2021/01/21 05:21:17;;;;;;;2.50;2.17;;;;;;;;;;5096855;28;20204;-63
2021/01/21 05:23:44;;;;;;;3.42;1.98;;;;;;;;;;5097455;28;20291;-63
2021/01/21 05:26:11;;;;;;;1.70;1.60;;;;;;;;;;5112012;28;20227;-62
2021/01/21 05:28:37;;;;;;;2.53;1.40;;;;;;;;;;5107234;28;20657;-63
2021/01/21 05:31:04;;;;;;;5.53;1.55;;;;;;;;;;5098198;28;20204;-62
2021/01/21 05:33:32;;;;;;;3.05;1.48;;;;;;;;;;5100233;28;20201;-63
2021/01/21 05:35:59;;;;;;;3.55;1.45;;;;;;;;;;5096592;28;20200;-63
2021/01/21 05:38:25;;;;;;;3.17;1.95;;;;;;;;;;5097150;28;20224;-63
2021/01/21 05:40:52;;;;;;;3.88;1.38;;;;;;;;;;5102516;28;20230;-64
2021/01/21 05:43:19;;;;;;;3.70;1.80;;;;;;;;;;5096790;28;20208;-65
2021/01/21 05:45:46;;;;;;;3.97;1.20;;;;;;;;;;5096265;28;20225;-64
2021/01/21 05:48:13;;;;;;;1.92;1.65;;;;;;;;;;5096347;28;20715;-64
2021/01/21 05:50:41;;;;;;;2.28;1.10;;;;;;;;;;5096774;28;20219;-62
2021/01/21 05:53:09;;;;;;;4.40;1.45;;;;;;;;;;5096291;28;20249;-64
2021/01/21 05:55:37;;;;;;;2.75;1.30;;;;;;;;;;5095647;28;20196;-63
2021/01/21 05:58:04;;;;;;;1.90;1.50;;;;;;;;;;5095913;28;20607;-64
2021/01/21 06:00:32;;;;;;;2.35;1.38;;;;;;;;;;5097207;28;20204;-63
2021/01/21 06:02:59;;;;;;;1.90;1.20;;;;;;;;;;5096267;28;20200;-64
2021/01/21 06:05:27;;;;;;;1.55;1.35;;;;;;;;;;5095817;28;20204;-64
2021/01/21 06:07:54;;;;;;;5.10;1.43;;;;;;;;;;5096066;28;20224;-63
2021/01/21 06:10:21;;;;;;;1.63;1.20;;;;;;;;;;5095650;28;20445;-64
2021/01/21 06:12:49;;;;;;;2.72;1.40;;;;;;;;;;5095843;28;20452;-64
2021/01/21 06:15:16;;;;;;;1.60;1.40;;;;;;;;;;5095619;28;20258;-64
2021/01/21 06:17:43;;;;;;;3.23;1.60;;;;;;;;;;5095812;28;20826;-64
2021/01/21 06:20:11;;;;;;;2.63;1.40;;;;;;;;;;5095409;28;20458;-64
2021/01/21 06:22:40;;;;;;;2.40;1.50;;;;;;;;;;5095502;28;20445;-64
2021/01/21 06:25:11;;;;;;;1.98;1.27;;;;;;;;;;5099729;28;20473;-64
2021/01/21 06:27:40;;;;;;;2.67;1.30;;;;;;;;;;5101734;28;20261;-64
2021/01/21 06:30:08;;;;;;;1.80;1.33;;;;;;;;;;5102710;28;20208;-63
2021/01/21 06:32:38;;;;;;;2.60;1.70;;;;;;;;;;5101479;28;20205;-64
2021/01/21 06:35:06;;;;;;;1.83;1.40;;;;;;;;;;5097084;28;20464;-63
2021/01/21 06:37:34;;;;;;;1.57;1.03;;;;;;;;;;5094890;28;21005;-64
2021/01/21 06:40:02;;;;;;;2.50;1.30;;;;;;;;;;5095051;28;20453;-64
2021/01/21 06:42:31;;;;;;;2.50;1.53;;;;;;;;;;5095276;28;21035;-64
2021/01/21 06:44:58;;;;;;;2.23;1.33;;;;;;;;;;5096183;28;20450;-65
2021/01/21 06:47:25;;;;;;;1.50;1.20;;;;;;;;;;5094979;28;20490;-64
2021/01/21 06:49:55;;;;;;;3.70;1.27;;;;;;;;;;5095039;28;20454;-63
2021/01/21 06:52:23;;;;;;;2.87;1.30;;;;;;;;;;5094533;28;20834;-63
2021/01/21 06:54:50;;;;;;;1.40;1.20;;;;;;;;;;5094753;28;20508;-63
2021/01/21 06:57:36;;;;;;;3.40;1.70;;;;;;;;;;5095064;28;20462;-64
2021/01/21 07:00:05;;;;;;;3.60;1.50;;;;;;;;;;5094531;28;20457;-63
2021/01/21 07:02:56;;;;;;;3.60;1.57;;;;;;;;;;5094895;28;20931;-64
2021/01/21 07:05:25;;;;;;;2.20;1.13;;;;;;;;;;5080321;28;20450;-63
2021/01/21 07:08:13;;;;;;;3.97;1.33;;;;;;;;;;5095899;28;20507;-65
2021/01/21 07:10:41;;;;;;;2.70;1.30;;;;;;;;;;5090649;28;20435;-64
2021/01/21 07:13:09;;;;;;;2.40;1.13;;;;;;;;;;5096095;28;20442;-63
2021/01/21 07:15:37;;;;;;;2.20;1.47;;;;;;;;;;5095697;28;20446;-63
2021/01/21 07:18:04;;;;;;;2.10;1.40;;;;;;;;;;5095340;28;20520;-64
2021/01/21 07:20:32;;;;;;;2.65;1.55;;;;;;;;;;5095562;28;20434;-64
2021/01/21 07:23:02;;;;;;;2.90;1.30;;;;;;;;;;5095160;28;20215;-64
2021/01/21 07:25:30;;;;;;;1.90;1.40;;;;;;;;;;5097503;28;20934;-64
2021/01/21 07:27:57;;;;;;;4.60;1.63;;;;;;;;;;5097105;28;20485;-63
2021/01/21 07:30:25;;;;;;;3.73;1.90;;;;;;;;;;5094460;28;20453;-64
2021/01/21 07:33:07;;;;;;;2.47;1.20;;;;;;;;;;5094086;28;20442;-62
2021/01/21 07:35:39;;;;;;;2.53;1.13;;;;;;;;;;5094770;28;20443;-64
2021/01/21 07:38:06;;;;;;;2.10;1.57;;;;;;;;;;5094435;28;20454;-64
2021/01/21 07:40:43;;;;;;;1.43;1.27;;;;;;;;;;5095320;28;20442;-64
2021/01/21 07:43:10;;;;;;;3.30;1.60;;;;;;;;;;5093731;28;20442;-63
2021/01/21 07:45:37;;;;;;;3.20;1.60;;;;;;;;;;5093372;28;20446;-62
2021/01/21 07:48:20;;;;;;;3.10;1.43;;;;;;;;;;5093551;28;20519;-64
2021/01/21 07:50:48;;;;;;;3.47;1.27;;;;;;;;;;5093833;28;20507;-64
2021/01/21 07:53:19;;;;;;;2.07;1.57;;;;;;;;;;5093780;28;20446;-63
2021/01/21 07:55:46;;;;;;;2.80;1.13;;;;;;;;;;5094178;28;20483;-63
2021/01/21 07:58:17;;;;;;;3.13;0.90;;;;;;;;;;5094972;28;20466;-64
2021/01/21 08:00:44;;;;;;;1.60;0.80;;;;;;;;;;5094485;28;20492;-62
2021/01/21 08:03:11;;;;;;;2.10;0.68;;;;;;;;;;5093957;28;20933;-62
2021/01/21 08:05:38;;;;;;;0.85;0.77;;;;;;;;;;5095990;28;20208;-63
2021/01/21 08:08:06;;;;;;;3.72;1.02;;;;;;;;;;5102526;28;20224;-62
2021/01/21 08:10:33;;;;;;;1.52;0.70;;;;;;;;;;5096157;28;20204;-63
2021/01/21 08:13:00;;;;;;;0.98;0.70;;;;;;;;;;5095645;28;20261;-63
2021/01/21 08:15:28;;;;;;;1.33;1.02;;;;;;;;;;5093752;28;20204;-62
2021/01/21 08:17:56;;;;;;;1.17;0.75;;;;;;;;;;5093466;28;20567;-63
2021/01/21 08:20:23;;;;;;;2.35;0.90;;;;;;;;;;5094665;28;20196;-62
2021/01/21 08:22:58;;;;;;;1.60;0.70;;;;;;;;;;5094072;28;20207;-62
2021/01/21 08:25:26;;;;;;;1.13;0.70;;;;;;;;;;5094005;28;20272;-63
2021/01/21 08:27:54;;;;;;;0.60;0.50;;;;;;;;;;5093859;28;20228;-61
2021/01/21 08:30:21;;;;;;;2.45;0.82;;;;;;;;;;5095189;28;20200;-63
2021/01/21 08:32:50;;;;;;;1.10;0.70;;;;;;;;;;5095132;28;20691;-62
2021/01/21 08:35:20;;;;;;;1.20;0.70;;;;;;;;;;5095638;28;20243;-60
2021/01/21 08:37:47;;;;;;;2.13;0.75;;;;;;;;;;5096756;28;20596;-63
2021/01/21 08:40:15;;;;;;;1.55;1.10;;;;;;;;;;5104071;28;20208;-62
2021/01/21 08:42:44;;;;;;;1.10;0.60;;;;;;;;;;5102993;28;20231;-63
2021/01/21 08:45:12;;;;;;;1.55;0.93;;;;;;;;;;5095912;28;20664;-63
2021/01/21 08:47:42;;;;;;;0.93;0.75;;;;;;;;;;5096060;28;20251;-64
2021/01/21 08:50:09;;;;;;;1.60;0.65;;;;;;;;;;5095222;28;20200;-62
2021/01/21 08:52:37;;;;;;;1.30;0.80;;;;;;;;;;5095699;28;20212;-62
2021/01/21 08:55:04;;;;;;;0.90;0.70;;;;;;;;;;5100657;28;20337;-63
2021/01/21 08:57:31;;;;;;;0.63;0.63;;;;;;;;;;5098494;28;20220;-63
2021/01/21 09:00:12;;;;;;;1.15;1.00;;;;;;;;;;5098354;28;20196;-62
2021/01/21 09:02:43;;;;;;;0.80;0.63;;;;;;;;;;5098807;28;20223;-62
2021/01/21 09:05:10;;;;;;;1.45;0.85;;;;;;;;;;5098755;28;20204;-63
2021/01/21 09:07:37;;;;;;;1.17;0.60;;;;;;;;;;5098177;28;20243;-62
2021/01/21 09:10:10;;;;;;;2.88;0.85;;;;;;;;;;5098121;28;20204;-63
2021/01/21 09:12:37;;;;;;;1.38;0.90;;;;;;;;;;5097734;28;20203;-63
2021/01/21 09:15:05;;;;;;;1.23;0.77;;;;;;;;;;5097820;28;20668;-64
2021/01/21 09:17:33;;;;;;;1.35;0.60;;;;;;;;;;5100373;28;20337;-63
2021/01/21 09:20:01;;;;;;;1.05;0.90;;;;;;;;;;5098520;28;20212;-63
2021/01/21 09:22:38;;;;;;;0.98;0.70;;;;;;;;;;5098420;28;20197;-62
2021/01/21 09:25:06;;;;;;;1.00;0.52;;;;;;;;;;5097523;28;20203;-62
2021/01/21 09:27:33;;;;;;;1.52;0.80;;;;;;;;;;5096764;28;20228;-62
2021/01/21 09:30:01;;;;;;;1.02;0.85;;;;;;;;;;5097805;28;20200;-62
2021/01/21 09:32:28;;;;;;;1.33;0.70;;;;;;;;;;5097200;28;20569;-63
2021/01/21 09:34:57;;;;;;;0.70;0.50;;;;;;;;;;5097998;28;20204;-63
2021/01/21 09:37:24;;;;;;;1.35;0.82;;;;;;;;;;5098078;28;20223;-63
2021/01/21 09:39:51;;;;;;;1.75;0.65;;;;;;;;;;5099698;28;20254;-62
2021/01/21 09:42:19;;;;;;;2.35;0.85;;;;;;;;;;5098904;28;20200;-63
2021/01/21 09:44:46;;;;;;;0.93;0.70;;;;;;;;;;5098623;28;20549;-62
2021/01/21 09:47:13;;;;;;;0.60;0.60;;;;;;;;;;5098546;28;20232;-63
2021/01/21 09:49:41;;;;;;;1.20;0.60;;;;;;;;;;5100131;28;20208;-63
2021/01/21 09:52:09;;;;;;;1.10;0.80;;;;;;;;;;5098682;28;20196;-63
2021/01/21 09:54:36;;;;;;;0.95;0.75;;;;;;;;;;5100294;28;20659;-63
2021/01/21 09:57:03;;;;;;;1.00;0.85;;;;;;;;;;5098635;28;20282;-64
2021/01/21 09:59:29;;;;;;;1.10;0.57;;;;;;;;;;5101369;28;20679;-64
2021/01/21 10:01:56;;;;;;;1.23;0.70;;;;;;;;;;5095961;28;20204;-62
2021/01/21 10:04:23;;;;;;;2.05;0.68;;;;;;;;;;5095904;28;20576;-62
2021/01/21 10:06:50;;;;;;;1.25;0.70;;;;;;;;;;5095646;28;20254;-62
2021/01/21 10:09:17;;;;;;;1.40;0.80;;;;;;;;;;5095757;28;20640;-62
2021/01/21 10:11:44;;;;;;;1.20;0.70;;;;;;;;;;5095820;28;20196;-62
2021/01/21 10:14:11;;;;;;;2.03;0.90;;;;;;;;;;5096309;28;20204;-62
2021/01/21 10:16:38;;;;;;;1.00;0.60;;;;;;;;;;5096194;28;20301;-62
2021/01/21 10:19:05;;;;;;;1.80;0.93;;;;;;;;;;5095969;28;20204;-62
2021/01/21 10:21:31;;;;;;;1.35;0.98;;;;;;;;;;5095357;28;20208;-61
2021/01/21 10:23:58;;;;;;;3.75;1.20;;;;;;;;;;5095573;28;20691;-61
2021/01/21 10:26:26;;;;;;;1.23;0.70;;;;;;;;;;5095459;28;20216;-61
2021/01/21 10:28:52;;;;;;;2.45;0.95;;;;;;;;;;5095243;28;20598;-61
2021/01/21 10:31:19;;;;;;;1.27;0.80;;;;;;;;;;5095318;28;20672;-61
2021/01/21 10:33:46;;;;;;;2.42;0.82;;;;;;;;;;5095270;28;20612;-60
2021/01/21 10:36:13;;;;;;;1.23;0.60;;;;;;;;;;5095463;28;20592;-62
2021/01/21 10:38:40;;;;;;;1.58;0.90;;;;;;;;;;5095120;28;20639;-62
2021/01/21 10:41:07;;;;;;;3.53;1.00;;;;;;;;;;5094964;28;20671;-63
2021/01/21 10:43:35;;;;;;;1.85;0.93;;;;;;;;;;5094950;28;20269;-62
2021/01/21 10:46:02;;;;;;;5.45;2.47;;;;;;;;;;5096319;28;20207;-62
2021/01/21 10:48:29;;;;;;;2.30;0.80;;;;;;;;;;5095501;28;20229;-62
2021/01/21 10:50:56;;;;;;;2.90;1.20;;;;;;;;;;5096516;28;20197;-62
2021/01/21 10:53:22;;;;;;;3.63;1.00;;;;;;;;;;5095914;28;20201;-61
2021/01/21 10:55:49;;;;;;;1.40;0.88;;;;;;;;;;5095148;28;20207;-62
2021/01/21 10:58:17;;;;;;;2.22;1.00;;;;;;;;;;5099471;28;20247;-62
2021/01/21 11:00:46;;;;;;;2.03;0.95;;;;;;;;;;5106106;28;20208;-62
2021/01/21 11:03:13;;;;;;;1.75;1.08;;;;;;;;;;5104071;28;20203;-64
2021/01/21 11:05:41;;;;;;;2.92;1.40;;;;;;;;;;5106086;28;20707;-63
2021/01/21 11:08:08;;;;;;;1.98;1.30;;;;;;;;;;5104335;28;20247;-63
2021/01/21 11:10:35;;;;;;;4.38;1.40;;;;;;;;;;5100421;28;20254;-63
2021/01/21 11:13:01;;;;;;;2.92;1.60;;;;;;;;;;5096458;28;20553;-64
2021/01/21 11:15:28;;;;;;;2.20;1.33;;;;;;;;;;5094545;28;20200;-64
2021/01/21 11:17:56;;;;;;;3.28;1.40;;;;;;;;;;5094455;28;20216;-63
2021/01/21 11:20:23;;;;;;;2.75;1.38;;;;;;;;;;5095137;28;20602;-62
2021/01/21 11:22:50;;;;;;;3.15;1.60;;;;;;;;;;5094502;28;20756;-63
2021/01/21 11:25:17;;;;;;;3.40;1.63;;;;;;;;;;5095592;28;20204;-64
2021/01/21 11:27:44;;;;;;;3.00;1.55;;;;;;;;;;5094852;28;20232;-63
2021/01/21 11:30:12;;;;;;;4.95;1.40;;;;;;;;;;5094611;28;20211;-63
2021/01/21 11:32:39;;;;;;;4.40;1.77;;;;;;;;;;5094116;28;20204;-62
2021/01/21 11:35:07;;;;;;;2.47;1.30;;;;;;;;;;5094697;28;20207;-62
2021/01/21 11:37:34;;;;;;;2.67;1.60;;;;;;;;;;5097012;28;20227;-64
2021/01/21 11:40:01;;;;;;;4.60;1.05;;;;;;;;;;5094539;28;20204;-64
2021/01/21 11:42:28;;;;;;;3.60;1.50;;;;;;;;;;5094454;28;20204;-62
2021/01/21 11:44:55;;;;;;;4.20;1.33;;;;;;;;;;5095194;28;20247;-64
2021/01/21 11:47:21;;;;;;;2.47;1.85;;;;;;;;;;5095014;28;20224;-63
2021/01/21 11:49:48;;;;;;;5.15;1.35;;;;;;;;;;5098273;28;20588;-62
2021/01/21 11:52:16;;;;;;;2.58;1.30;;;;;;;;;;5101870;28;20561;-63
2021/01/21 11:54:43;;;;;;;2.80;1.70;;;;;;;;;;5095908;28;20201;-62
2021/01/21 11:57:09;;;;;;;4.28;1.80;;;;;;;;;;5096964;28;20220;-63
2021/01/21 11:59:36;;;;;;;2.70;1.75;;;;;;;;;;5095377;28;20668;-63
2021/01/21 12:02:03;;;;;;;4.43;1.50;;;;;;;;;;5093653;28;20428;-63
2021/01/21 12:04:30;;;;;;;3.58;1.55;;;;;;;;;;5096225;28;20450;-66
2021/01/21 12:06:57;;;;;;;5.03;1.50;;;;;;;;;;5094915;28;20246;-64
2021/01/21 12:09:25;;;;;;;2.70;1.30;;;;;;;;;;5096318;28;20295;-64
2021/01/21 12:11:51;;;;;;;2.33;1.60;;;;;;;;;;5096069;28;20249;-65
2021/01/21 12:14:18;;;;;;;2.47;1.50;;;;;;;;;;5096130;28;20211;-64
2021/01/21 12:16:45;;;;;;;1.33;1.10;;;;;;;;;;5096519;28;20199;-64
2021/01/21 12:19:12;;;;;;;2.45;1.40;;;;;;;;;;5102291;28;20200;-64
2021/01/21 12:21:38;;;;;;;4.18;1.40;;;;;;;;;;5095720;28;20249;-65
2021/01/21 12:24:05;;;;;;;4.15;1.20;;;;;;;;;;5096116;28;20204;-66
2021/01/21 12:26:35;;;;;;;8.40;1.70;;;;;;;;;;5094258;28;20223;-65
2021/01/21 12:29:01;;;;;;;3.97;1.35;;;;;;;;;;5099886;28;20291;-65
2021/01/21 12:31:28;;;;;;;4.35;1.50;;;;;;;;;;5103877;28;20203;-66
2021/01/21 12:33:55;;;;;;;2.28;1.33;;;;;;;;;;5100942;28;20211;-65
2021/01/21 12:36:22;;;;;;;5.70;1.65;;;;;;;;;;5101535;28;20211;-65
2021/01/21 12:38:49;;;;;;;2.75;1.50;;;;;;;;;;5102396;28;20314;-66
2021/01/21 12:41:16;;;;;;;4.25;1.40;;;;;;;;;;5099787;28;20206;-66
2021/01/21 12:43:44;;;;;;;2.58;1.30;;;;;;;;;;5099550;28;20219;-65
2021/01/21 12:46:11;;;;;;;4.00;1.50;;;;;;;;;;5100805;28;20600;-66
2021/01/21 12:48:38;;;;;;;5.53;1.40;;;;;;;;;;5098207;28;20220;-65
2021/01/21 12:51:05;;;;;;;2.70;1.20;;;;;;;;;;5102214;28;20196;-66
2021/01/21 12:53:32;;;;;;;2.67;1.13;;;;;;;;;;5100692;28;20207;-66
2021/01/21 12:55:59;;;;;;;7.43;1.50;;;;;;;;;;5100906;28;20279;-67
2021/01/21 12:58:26;;;;;;;2.22;1.20;;;;;;;;;;5103504;28;20223;-66
2021/01/21 13:00:53;;;;;;;3.28;1.20;;;;;;;;;;5103300;28;20204;-65
2021/01/21 13:03:21;;;;;;;5.60;1.52;;;;;;;;;;5102396;28;20211;-66
2021/01/21 13:05:48;;;;;;;5.13;1.45;;;;;;;;;;5102240;28;20302;-66
2021/01/21 13:08:15;;;;;;;3.15;1.60;;;;;;;;;;5098684;28;20228;-65
2021/01/21 13:10:42;;;;;;;4.65;1.60;;;;;;;;;;5100368;28;20283;-65
2021/01/21 13:13:08;;;;;;;5.47;1.77;;;;;;;;;;5100708;28;20254;-66
2021/01/21 13:15:35;;;;;;;4.15;1.55;;;;;;;;;;5098939;28;20212;-64
2021/01/21 13:18:03;;;;;;;3.00;1.47;;;;;;;;;;5100550;28;20216;-66
2021/01/21 13:20:30;;;;;;;3.05;1.50;;;;;;;;;;5100671;28;20569;-65
2021/01/21 13:22:56;;;;;;;2.35;1.17;;;;;;;;;;5103797;28;20215;-64
2021/01/21 13:25:23;;;;;;;2.77;1.30;;;;;;;;;;5105107;28;20200;-65
2021/01/21 13:27:50;;;;;;;4.47;1.42;;;;;;;;;;5103893;28;20481;-63
2021/01/21 13:30:17;;;;;;;3.47;1.02;;;;;;;;;;5102264;28;20261;-65
2021/01/21 13:32:45;;;;;;;4.40;1.38;;;;;;;;;;5100035;28;20204;-65
2021/01/21 13:35:13;;;;;;;5.65;1.55;;;;;;;;;;5098106;28;20211;-66
2021/01/21 13:37:40;;;;;;;3.63;1.00;;;;;;;;;;5097181;28;20228;-65
2021/01/21 13:40:07;;;;;;;3.20;1.00;;;;;;;;;;5097413;28;20211;-66
2021/01/21 13:42:34;;;;;;;2.17;1.10;;;;;;;;;;5096822;28;20200;-65
2021/01/21 13:45:00;;;;;;;3.92;1.30;;;;;;;;;;5096700;28;20549;-65
2021/01/21 13:47:27;;;;;;;2.85;0.90;;;;;;;;;;5096512;28;20224;-65
2021/01/21 13:49:56;;;;;;;4.70;1.15;;;;;;;;;;5097236;28;20204;-65
2021/01/21 13:52:24;;;;;;;3.33;1.33;;;;;;;;;;5096179;28;20204;-65
2021/01/21 13:54:50;;;;;;;3.67;1.40;;;;;;;;;;5096190;28;20209;-64
2021/01/21 13:57:17;;;;;;;1.98;1.00;;;;;;;;;;5095667;28;20769;-65
2021/01/21 13:59:44;;;;;;;3.35;1.52;;;;;;;;;;5096538;28;20204;-65
2021/01/21 14:02:11;;;;;;;3.15;1.20;;;;;;;;;;5096881;28;20208;-65
2021/01/21 14:04:37;;;;;;;4.32;1.25;;;;;;;;;;5096231;28;20208;-65
2021/01/21 14:07:05;;;;;;;3.15;1.20;;;;;;;;;;5096377;28;20612;-64
2021/01/21 14:09:33;;;;;;;4.57;1.05;;;;;;;;;;5096490;28;20200;-64
2021/01/21 14:12:00;;;;;;;2.40;0.80;;;;;;;;;;5095969;28;20234;-64
2021/01/21 14:14:26;;;;;;;1.50;1.00;;;;;;;;;;5096100;28;20239;-64
2021/01/21 14:16:53;;;;;;;1.17;0.82;;;;;;;;;;5098861;28;20212;-64
2021/01/21 14:19:20;;;;;;;2.30;1.02;;;;;;;;;;5101714;28;20226;-64
2021/01/21 14:21:46;;;;;;;4.13;1.13;;;;;;;;;;5097119;28;20245;-65
2021/01/21 14:24:13;;;;;;;2.88;1.00;;;;;;;;;;5096055;28;20204;-64
2021/01/21 14:26:41;;;;;;;2.72;0.95;;;;;;;;;;5095573;28;20247;-62
2021/01/21 14:29:08;;;;;;;4.25;0.98;;;;;;;;;;5096132;28;20274;-64
2021/01/21 14:31:36;;;;;;;2.10;0.73;;;;;;;;;;5100383;28;20204;-63
2021/01/21 14:34:03;;;;;;;2.88;1.23;;;;;;;;;;5102933;28;20664;-64
2021/01/21 14:36:30;;;;;;;1.92;0.80;;;;;;;;;;5098626;28;20207;-64
2021/01/21 14:38:58;;;;;;;3.83;0.90;;;;;;;;;;5098749;28;20201;-64
2021/01/21 14:41:27;;;;;;;3.45;1.40;;;;;;;;;;5099715;28;20317;-64
2021/01/21 14:43:55;;;;;;;4.03;1.15;;;;;;;;;;5099857;28;20200;-65
2021/01/21 14:46:21;;;;;;;2.20;0.95;;;;;;;;;;5098000;28;20200;-63
2021/01/21 14:48:48;;;;;;;0.82;0.63;;;;;;;;;;5098476;28;20583;-65